Brockwell, Arkansas
Current Conditions -  °F | °C
As of 8:35 PM on Wednesday 26 Nov 2014 (Local Time) from KBVX Reporting Station
Clear Clear  
Wind Chill: 40°   Ceiling: Unl
Heat Index: 45°   Visibility: 10mi
Dew Point: 27°   Wind: 8mph
Humidity: 49%   Direction: 280°W
Pressure: 30.17"   Gusts: NA
Location:  36.14°N, 91.93°W
Report Text: KBVX 270235Z AUTO 28007KT 10SM CLR 07/M03 A3017 RMK AO1
Loading
Personal Weather Stations






























Interactive Weather Map New forecast layout! Learn more

10-Day Weather Forecast

Advertisements
Track Severe Weather on mobile